Time;durP1;ratioP1;P1;durP2;ratioP2;P2;SDS_P1;SDS_P2;PMS_P1;PMS_P2;Temp;Humidity;BMP_temperature;BMP_pressure;BME280_temperature;BME280_humidity;BME280_pressure;Samples;Min_cycle;Max_cycle;Signal;HPM_P1;HPM_P2
2022/08/16 00:01:25;;;;;;;2.50;1.35;;;22.20;92.30;;;;;;5072919;28;20382;-76
2022/08/16 00:03:52;;;;;;;3.05;1.67;;;22.30;92.00;;;;;;5073032;28;20130;-77
2022/08/16 00:06:18;;;;;;;3.55;1.98;;;22.20;92.20;;;;;;5073183;28;20069;-77
2022/08/16 00:08:43;;;;;;;3.20;1.58;;;21.90;92.30;;;;;;5073459;28;20098;-78
2022/08/16 00:11:10;;;;;;;4.40;1.48;;;22.10;92.20;;;;;;5073206;28;20032;-77
2022/08/16 00:13:36;;;;;;;5.93;1.52;;;22.10;91.80;;;;;;5073369;28;20035;-77
2022/08/16 00:16:02;;;;;;;4.70;1.33;;;22.20;92.00;;;;;;5073259;28;20025;-76
2022/08/16 00:18:28;;;;;;;2.67;1.23;;;22.10;92.10;;;;;;5073281;28;20078;-76
2022/08/16 00:20:54;;;;;;;3.55;1.42;;;22.10;92.20;;;;;;5073155;28;20029;-77
2022/08/16 00:23:20;;;;;;;2.70;1.35;;;21.90;92.60;;;;;;5073058;28;20056;-77
2022/08/16 00:25:45;;;;;;;2.85;1.30;;;21.80;92.60;;;;;;5073053;28;20039;-77
2022/08/16 00:28:11;;;;;;;3.50;1.33;;;22.00;92.40;;;;;;5073391;28;20466;-77
2022/08/16 00:30:38;;;;;;;3.33;1.10;;;21.80;92.40;;;;;;5072846;28;20024;-77
2022/08/16 00:33:04;;;;;;;2.75;1.35;;;21.80;92.50;;;;;;5072762;28;20478;-77
2022/08/16 00:35:34;;;;;;;2.20;1.00;;;21.70;92.70;;;;;;5072828;28;20027;-77
2022/08/16 00:38:04;;;;;;;3.00;1.52;;;21.80;92.80;;;;;;5072922;28;20420;-77
2022/08/16 00:40:43;;;;;;;2.72;1.20;;;21.60;93.40;;;;;;5072954;28;20513;-77
2022/08/16 00:43:13;;;;;;;4.15;1.48;;;21.50;93.20;;;;;;5072694;28;20394;-77
2022/08/16 00:45:55;;;;;;;2.95;1.58;;;21.30;93.70;;;;;;5072367;28;20058;-77
2022/08/16 00:48:21;;;;;;;5.05;1.73;;;21.20;94.00;;;;;;5065634;28;20081;-77
2022/08/16 00:50:46;;;;;;;2.63;1.40;;;21.20;94.10;;;;;;5072684;28;20032;-77
2022/08/16 00:53:15;;;;;;;3.45;1.70;;;21.20;94.30;;;;;;5072890;28;20024;-77
2022/08/16 00:55:46;;;;;;;3.10;1.60;;;21.00;94.50;;;;;;5072424;28;20013;-77
2022/08/16 00:58:13;;;;;;;4.50;1.90;;;21.10;94.60;;;;;;5054661;28;20039;-77
2022/08/16 01:00:39;;;;;;;3.28;1.50;;;20.90;94.80;;;;;;5073764;28;20024;-77
2022/08/16 01:03:09;;;;;;;3.35;1.67;;;20.80;95.10;;;;;;5076667;28;20484;-77
2022/08/16 01:05:35;;;;;;;2.88;1.70;;;20.60;95.40;;;;;;5076437;28;20043;-77
2022/08/16 01:08:02;;;;;;;4.07;1.42;;;20.90;95.10;;;;;;5076699;28;20039;-76
2022/08/16 01:10:30;;;;;;;2.50;1.30;;;20.70;95.40;;;;;;5076318;28;20127;-77
2022/08/16 01:12:56;;;;;;;3.17;1.77;;;20.70;95.40;;;;;;5076089;28;20120;-77
2022/08/16 01:15:22;;;;;;;3.08;1.60;;;20.70;95.30;;;;;;5076461;28;20103;-77
2022/08/16 01:17:48;;;;;;;2.25;1.05;;;20.90;95.10;;;;;;5076430;28;20526;-77
2022/08/16 01:20:17;;;;;;;3.78;1.52;;;20.90;95.20;;;;;;5076240;28;20060;-77
2022/08/16 01:23:08;;;;;;;3.08;1.40;;;20.90;95.10;;;;;;5076017;28;20024;-76
2022/08/16 01:25:40;;;;;;;3.83;1.40;;;20.90;95.10;;;;;;5075931;28;20428;-77
2022/08/16 01:28:11;;;;;;;3.70;1.40;;;20.90;95.20;;;;;;5076001;28;20024;-77
2022/08/16 01:30:40;;;;;;;3.53;1.23;;;21.00;95.00;;;;;;5075951;28;20028;-77
2022/08/16 01:33:08;;;;;;;5.35;1.60;;;21.00;95.00;;;;;;5076048;28;20482;-76
2022/08/16 01:36:04;;;;;;;3.85;1.50;;;21.20;94.90;;;;;;5076106;28;20032;-77
2022/08/16 01:38:39;;;;;;;3.83;1.85;;;21.10;95.10;;;;;;5074676;28;20040;-77
2022/08/16 01:41:21;;;;;;;1.98;1.13;;;20.90;95.30;;;;;;5075919;28;20432;-77
2022/08/16 01:43:48;;;;;;;2.80;1.55;;;20.80;95.80;;;;;;5075904;28;20368;-77
2022/08/16 01:46:27;;;;;;;4.65;1.98;;;20.60;95.90;;;;;;5075765;28;20115;-77
2022/08/16 01:49:15;;;;;;;2.80;1.45;;;20.30;96.40;;;;;;5075917;28;20043;-77
2022/08/16 01:51:44;;;;;;;2.70;1.58;;;20.10;96.80;;;;;;5066050;28;20041;-77
2022/08/16 01:54:10;;;;;;;3.13;1.48;;;20.20;96.90;;;;;;5075768;28;20025;-77
2022/08/16 01:56:37;;;;;;;3.03;1.63;;;20.10;97.10;;;;;;5075870;28;20025;-77
2022/08/16 01:59:06;;;;;;;4.30;1.80;;;20.00;97.10;;;;;;5075485;28;20040;-77
2022/08/16 02:01:32;;;;;;;4.30;2.22;;;19.90;97.50;;;;;;5075143;28;20024;-77
2022/08/16 02:03:58;;;;;;;4.20;1.80;;;19.90;97.60;;;;;;5075664;28;20029;-77
2022/08/16 02:06:24;;;;;;;5.15;1.75;;;19.90;97.70;;;;;;5075403;28;20036;-77
2022/08/16 02:08:50;;;;;;;4.28;2.30;;;19.60;98.20;;;;;;5075003;28;20037;-77
2022/08/16 02:11:16;;;;;;;5.10;2.08;;;19.60;98.10;;;;;;5074944;28;20035;-77
2022/08/16 02:13:42;;;;;;;3.42;2.13;;;19.80;97.90;;;;;;5074906;28;20375;-77
2022/08/16 02:16:12;;;;;;;3.78;1.70;;;19.80;97.80;;;;;;5075199;28;20037;-77
2022/08/16 02:18:39;;;;;;;3.38;1.50;;;20.00;97.80;;;;;;5075540;28;20029;-77
2022/08/16 02:21:06;;;;;;;2.28;1.30;;;20.10;97.40;;;;;;5075045;28;20502;-76
2022/08/16 02:23:35;;;;;;;3.33;1.50;;;20.20;97.20;;;;;;5075261;28;20028;-77
2022/08/16 02:26:01;;;;;;;5.80;1.83;;;20.20;97.30;;;;;;5075087;28;20071;-77
2022/08/16 02:28:26;;;;;;;2.95;1.25;;;20.20;97.20;;;;;;5074925;28;20390;-77
2022/08/16 02:30:55;;;;;;;3.92;1.30;;;20.10;97.40;;;;;;5075061;28;20059;-77
2022/08/16 02:33:22;;;;;;;2.85;1.70;;;20.10;97.30;;;;;;5074933;28;20510;-77
2022/08/16 02:35:48;;;;;;;3.78;0.98;;;20.10;97.30;;;;;;5074679;28;20031;-77
2022/08/16 02:38:14;;;;;;;2.95;0.88;;;20.20;97.10;;;;;;5074865;28;20024;-77
2022/08/16 02:40:40;;;;;;;3.28;1.45;;;20.30;97.10;;;;;;5075089;28;20032;-76
2022/08/16 02:43:06;;;;;;;3.85;1.60;;;20.30;97.00;;;;;;5074727;28;20028;-77
2022/08/16 02:45:32;;;;;;;3.55;1.60;;;20.40;97.00;;;;;;5074448;28;20037;-77
2022/08/16 02:47:58;;;;;;;2.05;1.15;;;20.30;97.10;;;;;;5074728;28;20048;-77
2022/08/16 02:50:24;;;;;;;4.15;1.40;;;20.30;97.20;;;;;;5074438;28;20029;-77
2022/08/16 02:52:50;;;;;;;4.22;1.35;;;20.20;97.20;;;;;;5074685;28;20036;-77
2022/08/16 02:55:17;;;;;;;2.83;1.40;;;20.20;97.20;;;;;;5074477;28;20028;-76
2022/08/16 02:57:43;;;;;;;2.67;1.40;;;20.30;97.20;;;;;;5074572;28;20020;-76
2022/08/16 03:00:12;;;;;;;3.08;1.42;;;20.20;97.20;;;;;;5074325;28;20032;-76
2022/08/16 03:02:40;;;;;;;3.35;1.30;;;20.20;97.20;;;;;;5072768;28;20025;-77
2022/08/16 03:05:07;;;;;;;4.65;1.30;;;20.20;97.20;;;;;;5068067;28;20060;-77
2022/08/16 03:07:33;;;;;;;3.55;1.80;;;20.10;97.40;;;;;;5069262;28;20518;-77
2022/08/16 03:09:59;;;;;;;3.75;1.23;;;20.20;97.20;;;;;;5068714;28;20055;-77
2022/08/16 03:12:25;;;;;;;2.53;1.30;;;20.20;97.30;;;;;;5069009;28;20029;-77
2022/08/16 03:14:50;;;;;;;3.22;1.35;;;20.20;97.50;;;;;;5069199;28;20020;-77
2022/08/16 03:17:16;;;;;;;4.53;1.20;;;20.00;97.70;;;;;;5062935;28;20131;-77
2022/08/16 03:19:42;;;;;;;2.70;1.08;;;19.90;97.80;;;;;;5046875;28;20033;-77
2022/08/16 03:22:08;;;;;;;3.70;1.30;;;19.70;98.30;;;;;;5046919;28;20032;-77
2022/08/16 03:24:34;;;;;;;3.22;1.60;;;19.70;98.30;;;;;;5049216;28;20037;-77
2022/08/16 03:27:00;;;;;;;2.60;1.15;;;19.60;98.40;;;;;;5049684;28;20402;-77
2022/08/16 03:29:28;;;;;;;3.30;1.77;;;19.50;98.70;;;;;;5049427;28;20485;-77
2022/08/16 03:31:54;;;;;;;2.72;1.52;;;19.40;98.90;;;;;;5049541;28;20568;-77
2022/08/16 03:34:20;;;;;;;3.88;1.45;;;19.30;99.10;;;;;;5049081;28;20025;-77
2022/08/16 03:36:46;;;;;;;3.30;1.65;;;19.20;99.50;;;;;;5048465;28;20086;-77
2022/08/16 03:39:12;;;;;;;2.60;1.42;;;19.20;99.50;;;;;;5048870;28;20530;-77
2022/08/16 03:41:39;;;;;;;4.07;2.05;;;19.10;99.50;;;;;;5049910;28;20029;-77
2022/08/16 03:44:06;;;;;;;3.35;1.70;;;18.90;99.90;;;;;;5049503;28;20021;-77
2022/08/16 03:46:32;;;;;;;6.38;1.67;;;18.80;99.90;;;;;;5048821;28;20086;-77
2022/08/16 03:48:58;;;;;;;5.68;1.88;;;18.80;99.90;;;;;;5048513;28;20491;-77
2022/08/16 03:51:24;;;;;;;3.85;1.73;;;18.80;99.90;;;;;;5048987;28;20163;-77
2022/08/16 03:53:50;;;;;;;3.75;1.67;;;19.00;99.90;;;;;;5049271;28;20044;-77
2022/08/16 03:56:16;;;;;;;3.25;1.80;;;18.90;99.90;;;;;;5046891;28;20036;-77
2022/08/16 03:58:42;;;;;;;3.38;1.90;;;18.80;99.90;;;;;;5046202;28;20029;-77
2022/08/16 04:01:08;;;;;;;3.33;1.83;;;18.80;99.90;;;;;;5045872;28;20526;-77
2022/08/16 04:03:34;;;;;;;3.72;1.77;;;18.70;99.90;;;;;;5046294;28;20028;-77
2022/08/16 04:06:00;;;;;;;5.85;2.05;;;18.80;99.90;;;;;;5045665;28;20035;-77
2022/08/16 04:08:26;;;;;;;5.05;2.25;;;18.60;99.90;;;;;;5046105;28;20410;-77
2022/08/16 04:10:53;;;;;;;4.38;1.90;;;18.60;99.90;;;;;;5045700;28;20064;-77
2022/08/16 04:13:20;;;;;;;3.00;1.75;;;18.30;99.90;;;;;;5046223;28;20025;-77
2022/08/16 04:15:46;;;;;;;4.55;1.90;;;18.20;99.90;;;;;;5045699;28;20028;-77
2022/08/16 04:18:12;;;;;;;4.28;1.90;;;18.30;99.90;;;;;;5045752;28;20017;-76
2022/08/16 04:20:38;;;;;;;2.95;1.65;;;18.10;99.90;;;;;;5045371;28;20111;-76
2022/08/16 04:23:06;;;;;;;4.40;1.95;;;18.20;99.90;;;;;;5046062;28;20071;-77
2022/08/16 04:25:33;;;;;;;3.03;1.60;;;18.30;99.90;;;;;;5045910;28;20016;-77
2022/08/16 04:27:59;;;;;;;3.80;1.75;;;18.40;99.90;;;;;;5045499;28;20495;-76
2022/08/16 04:30:26;;;;;;;4.50;2.13;;;18.50;99.90;;;;;;5045254;28;20028;-76
2022/08/16 04:32:52;;;;;;;4.13;1.90;;;18.50;99.90;;;;;;5045615;28;20060;-77
2022/08/16 04:35:21;;;;;;;6.07;1.80;;;18.70;99.90;;;;;;5044864;28;20063;-77
2022/08/16 04:37:47;;;;;;;3.60;1.90;;;18.70;99.90;;;;;;5045702;28;20025;-77
2022/08/16 04:40:14;;;;;;;3.55;1.92;;;18.70;99.90;;;;;;5045930;28;20024;-76
2022/08/16 04:42:41;;;;;;;4.03;1.60;;;18.90;99.90;;;;;;5045417;28;20437;-76
2022/08/16 04:45:12;;;;;;;2.88;1.63;;;18.90;99.90;;;;;;5045060;28;20037;-77
2022/08/16 04:47:39;;;;;;;3.10;1.70;;;19.00;99.90;;;;;;5045588;28;20112;-77
2022/08/16 04:50:09;;;;;;;3.33;1.50;;;19.10;99.90;;;;;;5045593;28;20111;-77
2022/08/16 04:52:36;;;;;;;4.65;1.85;;;19.00;99.90;;;;;;5045517;28;20064;-77
2022/08/16 04:55:04;;;;;;;3.38;1.55;;;19.00;99.90;;;;;;5044924;28;20031;-77
2022/08/16 04:57:30;;;;;;;3.30;1.33;;;19.00;99.90;;;;;;5045384;28;20604;-77
2022/08/16 04:59:56;;;;;;;3.78;1.88;;;18.90;99.90;;;;;;5044744;28;20132;-77
2022/08/16 05:02:21;;;;;;;3.00;1.63;;;19.10;99.90;;;;;;5045207;28;20568;-76
2022/08/16 05:04:47;;;;;;;3.22;1.45;;;19.00;99.90;;;;;;5044929;28;20033;-77
2022/08/16 05:07:13;;;;;;;3.72;1.73;;;19.00;99.90;;;;;;5045719;28;20495;-77
2022/08/16 05:09:38;;;;;;;2.65;1.15;;;19.20;99.90;;;;;;5045344;28;20521;-76
2022/08/16 05:12:04;;;;;;;3.53;1.15;;;19.20;99.90;;;;;;5045104;28;20025;-76
2022/08/16 05:14:30;;;;;;;2.67;1.42;;;19.20;99.90;;;;;;5045289;28;20029;-76
2022/08/16 05:16:55;;;;;;;3.95;1.80;;;19.20;99.90;;;;;;5047571;28;20029;-76
2022/08/16 05:19:21;;;;;;;4.82;1.65;;;19.10;99.90;;;;;;5047853;28;20035;-76
2022/08/16 05:21:46;;;;;;;2.47;1.27;;;19.00;99.90;;;;;;5048291;28;20040;-77
2022/08/16 05:24:12;;;;;;;4.43;1.50;;;19.10;99.90;;;;;;5047614;28;20028;-77
2022/08/16 05:26:38;;;;;;;2.80;1.40;;;19.10;99.90;;;;;;5047695;28;20082;-77
2022/08/16 05:29:05;;;;;;;3.03;1.58;;;19.20;99.90;;;;;;5047893;28;20032;-77
2022/08/16 05:31:32;;;;;;;3.10;1.50;;;19.00;99.90;;;;;;5047904;28;20514;-77
2022/08/16 05:33:59;;;;;;;4.20;1.83;;;19.10;99.90;;;;;;5047988;28;20033;-77
2022/08/16 05:36:25;;;;;;;2.78;1.55;;;19.20;99.90;;;;;;5047734;28;20032;-76
2022/08/16 05:38:51;;;;;;;4.45;1.98;;;19.10;99.90;;;;;;5046684;28;20044;-77
2022/08/16 05:41:17;;;;;;;6.00;1.83;;;19.00;99.90;;;;;;5044841;28;20029;-76
2022/08/16 05:43:42;;;;;;;4.10;1.40;;;18.90;99.90;;;;;;5045096;28;20394;-77
2022/08/16 05:46:10;;;;;;;4.95;1.75;;;19.00;99.90;;;;;;5045276;28;20116;-76
2022/08/16 05:48:36;;;;;;;3.40;1.40;;;18.90;99.90;;;;;;5048825;28;20036;-77
2022/08/16 05:51:01;;;;;;;2.70;1.48;;;19.00;99.90;;;;;;5051978;28;20387;-76
2022/08/16 05:53:27;;;;;;;6.45;2.05;;;19.00;99.90;;;;;;5051615;28;20644;-76
2022/08/16 05:55:53;;;;;;;9.93;2.40;;;19.10;99.90;;;;;;5051386;28;20033;-77
2022/08/16 05:58:18;;;;;;;2.38;1.20;;;19.20;99.90;;;;;;5051075;28;20554;-76
2022/08/16 06:00:44;;;;;;;4.55;2.08;;;19.10;99.90;;;;;;5051174;28;20025;-77
2022/08/16 06:03:09;;;;;;;6.03;1.83;;;19.20;99.90;;;;;;5051005;28;20057;-77
2022/08/16 06:05:35;;;;;;;4.82;1.40;;;19.30;99.90;;;;;;5048180;28;20100;-77
2022/08/16 06:08:01;;;;;;;5.57;2.17;;;19.20;99.90;;;;;;5046632;28;20065;-76
2022/08/16 06:10:26;;;;;;;4.90;1.80;;;19.30;99.90;;;;;;5050777;28;20052;-77
2022/08/16 06:12:52;;;;;;;4.07;1.60;;;19.40;99.90;;;;;;5050687;28;20083;-77
2022/08/16 06:15:19;;;;;;;3.25;1.75;;;19.40;99.90;;;;;;5050903;28;20036;-77
2022/08/16 06:17:45;;;;;;;3.38;1.58;;;19.60;99.90;;;;;;5051016;28;20036;-77
2022/08/16 06:20:23;;;;;;;3.58;1.60;;;19.60;99.90;;;;;;5050814;28;20032;-77
2022/08/16 06:22:50;;;;;;;2.88;1.60;;;19.60;99.90;;;;;;5050382;28;20479;-77
2022/08/16 06:25:16;;;;;;;4.95;2.10;;;19.80;99.90;;;;;;5050635;28;20063;-77
2022/08/16 06:27:42;;;;;;;3.50;1.48;;;19.90;99.90;;;;;;5051023;28;20060;-77
2022/08/16 06:30:10;;;;;;;3.67;1.58;;;20.20;99.90;;;;;;5050802;28;20481;-77
2022/08/16 06:32:36;;;;;;;2.78;1.63;;;20.40;99.70;;;;;;5050848;28;20112;-77
2022/08/16 06:35:02;;;;;;;4.72;2.05;;;20.80;99.70;;;;;;5050153;28;20511;-77
2022/08/16 06:37:28;;;;;;;4.00;1.50;;;20.90;99.60;;;;;;5050294;28;20041;-77
2022/08/16 06:39:54;;;;;;;2.67;1.38;;;20.80;99.50;;;;;;5050344;28;20083;-77
2022/08/16 06:42:19;;;;;;;3.95;1.80;;;20.80;99.40;;;;;;5049999;28;20228;-77
2022/08/16 06:44:45;;;;;;;4.20;1.42;;;20.90;99.00;;;;;;5050321;28;20564;-77
2022/08/16 06:47:12;;;;;;;3.28;1.88;;;21.20;98.90;;;;;;5050460;28;20044;-77
2022/08/16 06:49:38;;;;;;;4.65;2.15;;;21.50;98.60;;;;;;5050171;28;20036;-77
2022/08/16 06:52:03;;;;;;;2.78;1.25;;;21.60;98.10;;;;;;5050102;28;20387;-77
2022/08/16 06:54:29;;;;;;;6.45;1.77;;;21.40;98.30;;;;;;5050136;28;20390;-77
2022/08/16 06:56:55;;;;;;;3.70;1.70;;;21.70;98.30;;;;;;5049631;28;20024;-77
2022/08/16 06:59:21;;;;;;;5.28;1.70;;;22.10;97.80;;;;;;5046333;28;20474;-77
2022/08/16 07:01:47;;;;;;;2.58;1.40;;;22.30;96.70;;;;;;5047430;28;20040;-77
2022/08/16 07:04:13;;;;;;;4.38;1.85;;;22.10;96.80;;;;;;5047306;28;20029;-77
2022/08/16 07:06:41;;;;;;;3.67;1.70;;;22.90;96.20;;;;;;5046883;28;20040;-77
2022/08/16 07:09:06;;;;;;;4.05;1.77;;;24.00;94.80;;;;;;5046916;28;20044;-78
2022/08/16 07:11:32;;;;;;;3.30;1.60;;;25.10;93.60;;;;;;5046721;28;20360;-77
2022/08/16 07:13:58;;;;;;;2.97;1.60;;;26.80;91.70;;;;;;5046724;28;20020;-77
2022/08/16 07:16:24;;;;;;;3.10;1.60;;;28.20;90.20;;;;;;5046744;28;20029;-77
2022/08/16 07:18:51;;;;;;;2.58;1.58;;;28.80;88.10;;;;;;5046752;28;20021;-77
2022/08/16 07:21:17;;;;;;;4.82;1.95;;;29.50;87.80;;;;;;5046703;28;20017;-77
2022/08/16 07:23:45;;;;;;;4.38;1.92;;;30.00;86.20;;;;;;5046805;28;20028;-78
2022/08/16 07:26:24;;;;;;;5.20;1.80;;;29.20;85.30;;;;;;5046583;28;20067;-77
2022/08/16 07:28:50;;;;;;;3.80;1.73;;;29.50;85.80;;;;;;5046255;28;20095;-77
2022/08/16 07:31:17;;;;;;;5.47;1.40;;;28.00;88.70;;;;;;5046361;28;20067;-77
2022/08/16 07:33:43;;;;;;;3.92;1.60;;;29.20;86.00;;;;;;5045880;28;20048;-77
2022/08/16 07:36:11;;;;;;;2.72;1.67;;;30.00;84.60;;;;;;5046357;28;20049;-77
2022/08/16 07:38:38;;;;;;;3.15;1.80;;;30.30;84.20;;;;;;5046460;28;20471;-77
2022/08/16 07:41:04;;;;;;;4.53;1.60;;;30.70;83.30;;;;;;5046123;28;20029;-77
2022/08/16 07:43:30;;;;;;;5.30;1.98;;;30.60;82.80;;;;;;5046394;28;20104;-78
2022/08/16 07:45:56;;;;;;;3.55;1.60;;;30.60;82.40;;;;;;5045819;28;20108;-77
2022/08/16 07:48:21;;;;;;;6.43;2.08;;;27.30;86.30;;;;;;5045943;28;20133;-77
2022/08/16 07:50:47;;;;;;;4.20;1.67;;;24.80;90.70;;;;;;5045741;28;20617;-77
2022/08/16 07:53:13;;;;;;;4.55;1.85;;;23.80;92.30;;;;;;5046344;28;20542;-77
2022/08/16 07:55:40;;;;;;;3.78;1.70;;;23.20;92.90;;;;;;5046521;28;20021;-77
2022/08/16 07:58:06;;;;;;;5.05;1.70;;;22.90;93.90;;;;;;5046186;28;20025;-77
2022/08/16 08:00:33;;;;;;;4.40;2.20;;;22.70;94.20;;;;;;5045420;28;20032;-77
2022/08/16 08:02:59;;;;;;;5.40;2.08;;;22.60;95.10;;;;;;5045654;28;20044;-77
2022/08/16 08:05:26;;;;;;;3.67;1.98;;;22.60;94.90;;;;;;5045899;28;20044;-77
2022/08/16 08:07:53;;;;;;;2.67;1.60;;;22.70;94.50;;;;;;5045753;28;20033;-77
2022/08/16 08:10:20;;;;;;;2.90;1.90;;;22.60;94.60;;;;;;5045773;28;20052;-77
2022/08/16 08:12:49;;;;;;;3.05;1.63;;;22.60;94.80;;;;;;5045704;28;20089;-77
2022/08/16 08:15:16;;;;;;;2.92;1.70;;;22.60;94.90;;;;;;5045860;28;20040;-77
2022/08/16 08:17:41;;;;;;;2.53;1.33;;;22.50;94.50;;;;;;5045984;28;20060;-77
2022/08/16 08:20:11;;;;;;;3.05;1.88;;;22.60;94.60;;;;;;5045555;28;20037;-77
2022/08/16 08:22:38;;;;;;;3.90;1.60;;;22.60;94.80;;;;;;5045616;28;20081;-77
2022/08/16 08:25:04;;;;;;;2.60;1.60;;;22.50;94.80;;;;;;5045327;28;20021;-77
2022/08/16 08:27:30;;;;;;;3.42;1.75;;;22.80;94.90;;;;;;5045290;28;20028;-77
2022/08/16 08:29:57;;;;;;;5.05;1.77;;;22.70;94.40;;;;;;5045516;28;20644;-77
2022/08/16 08:32:24;;;;;;;3.33;1.67;;;22.90;95.40;;;;;;5045454;28;20032;-77
2022/08/16 08:34:49;;;;;;;5.85;1.90;;;24.30;93.30;;;;;;5045151;28;20379;-77
2022/08/16 08:37:15;;;;;;;3.00;1.63;;;26.10;90.40;;;;;;5045321;28;20036;-77
2022/08/16 08:39:41;;;;;;;1.98;1.30;;;27.00;90.40;;;;;;5045211;28;20031;-77
2022/08/16 08:42:07;;;;;;;4.72;1.60;;;27.40;90.40;;;;;;5046123;28;20374;-77
2022/08/16 08:44:34;;;;;;;2.55;1.35;;;28.10;88.80;;;;;;5044761;28;20025;-77
2022/08/16 08:47:02;;;;;;;4.55;1.77;;;28.00;87.50;;;;;;5044481;28;20029;-77
2022/08/16 08:49:31;;;;;;;3.55;1.60;;;27.60;88.60;;;;;;5044630;28;20025;-77
2022/08/16 08:51:57;;;;;;;4.25;1.75;;;28.50;88.30;;;;;;5050019;28;20095;-77
2022/08/16 08:54:25;;;;;;;3.00;1.65;;;28.20;88.60;;;;;;5050265;28;20021;-77
2022/08/16 08:56:51;;;;;;;3.53;1.45;;;28.20;89.70;;;;;;5048469;28;20067;-77
2022/08/16 08:59:17;;;;;;;5.63;1.75;;;28.10;88.10;;;;;;5048125;28;20044;-77
2022/08/16 09:01:43;;;;;;;3.92;1.45;;;27.90;89.10;;;;;;5047905;28;20104;-77
2022/08/16 09:04:10;;;;;;;3.47;1.42;;;27.00;87.80;;;;;;5048293;28;20071;-77
2022/08/16 09:06:37;;;;;;;4.15;1.33;;;26.60;90.10;;;;;;5048207;28;20068;-77
2022/08/16 09:09:04;;;;;;;4.22;1.20;;;26.50;89.80;;;;;;5048356;28;20128;-77
2022/08/16 09:11:31;;;;;;;8.00;1.90;;;26.00;90.50;;;;;;5047895;28;20059;-77
2022/08/16 09:13:56;;;;;;;4.95;1.60;;;25.80;90.80;;;;;;5048101;28;20584;-77
2022/08/16 09:16:22;;;;;;;4.00;1.67;;;25.30;91.10;;;;;;5048111;28;20025;-77
2022/08/16 09:18:48;;;;;;;3.53;1.48;;;25.20;90.80;;;;;;5048141;28;20439;-77
2022/08/16 09:21:14;;;;;;;3.20;1.65;;;25.30;91.20;;;;;;5049001;28;20503;-77
2022/08/16 09:23:40;;;;;;;3.33;1.55;;;25.40;91.30;;;;;;5051957;28;20025;-77
2022/08/16 09:26:09;;;;;;;3.85;1.65;;;25.50;90.30;;;;;;5051437;28;20124;-77
2022/08/16 09:28:36;;;;;;;2.33;1.30;;;25.20;90.20;;;;;;5051708;28;20425;-78
2022/08/16 09:31:05;;;;;;;5.38;1.60;;;25.10;90.80;;;;;;5051985;28;20554;-77
2022/08/16 09:33:31;;;;;;;2.58;1.40;;;25.30;91.10;;;;;;5051787;28;20025;-78
2022/08/16 09:35:57;;;;;;;3.13;1.38;;;25.20;91.10;;;;;;5051822;28;20486;-77
2022/08/16 09:38:24;;;;;;;6.05;1.67;;;25.40;91.50;;;;;;5052203;28;20056;-77
2022/08/16 09:40:50;;;;;;;2.58;1.45;;;25.90;91.30;;;;;;5051954;28;20029;-78
2022/08/16 09:43:19;;;;;;;2.65;1.48;;;26.10;90.50;;;;;;5052075;28;20025;-77
2022/08/16 09:45:45;;;;;;;3.03;1.75;;;26.40;90.50;;;;;;5051870;28;20045;-77
2022/08/16 09:48:13;;;;;;;3.47;1.98;;;26.40;90.70;;;;;;5051957;28;20071;-78
2022/08/16 09:50:40;;;;;;;7.00;2.00;;;26.40;90.30;;;;;;5051932;28;20086;-78
2022/08/16 09:53:15;;;;;;;2.55;1.40;;;26.50;90.50;;;;;;5051665;28;20029;-77
2022/08/16 09:55:42;;;;;;;3.10;1.52;;;26.80;90.50;;;;;;5051672;28;20121;-78
2022/08/16 09:58:08;;;;;;;3.50;1.52;;;26.80;89.20;;;;;;5051641;28;20044;-77
2022/08/16 10:00:34;;;;;;;3.58;1.48;;;26.50;89.70;;;;;;5051825;28;20029;-77
2022/08/16 10:03:00;;;;;;;2.65;1.48;;;26.40;88.70;;;;;;5051498;28;20143;-78
2022/08/16 10:05:26;;;;;;;7.82;1.83;;;26.30;89.30;;;;;;5051129;28;20029;-77
2022/08/16 10:07:51;;;;;;;3.03;1.75;;;26.50;90.10;;;;;;5051954;28;20029;-78
2022/08/16 10:10:22;;;;;;;3.22;1.60;;;26.80;90.40;;;;;;5052540;28;20128;-77
2022/08/16 10:15:34;;;;;;;2.63;1.73;;;26.50;89.90;;;;;;5052907;28;20063;-77
2022/08/16 10:18:06;;;;;;;3.83;1.20;;;27.10;89.00;;;;;;5053051;28;20463;-78
2022/08/16 10:20:37;;;;;;;4.22;1.48;;;27.60;87.30;;;;;;5052665;28;20028;-78
2022/08/16 10:23:05;;;;;;;3.42;1.90;;;27.40;88.40;;;;;;5052490;28;20025;-78
2022/08/16 10:25:31;;;;;;;2.58;1.58;;;27.30;90.60;;;;;;5052800;28;20041;-77
2022/08/16 10:27:59;;;;;;;5.07;2.08;;;27.40;87.70;;;;;;5052501;28;20021;-78
2022/08/16 10:30:24;;;;;;;3.00;1.50;;;27.20;86.80;;;;;;5052828;28;20040;-78
2022/08/16 10:32:50;;;;;;;7.10;2.00;;;27.20;88.00;;;;;;5051029;28;20061;-77
2022/08/16 10:35:16;;;;;;;2.58;1.60;;;27.40;88.10;;;;;;5052093;28;20411;-78
2022/08/16 10:37:41;;;;;;;2.70;1.33;;;27.30;86.80;;;;;;5051926;28;20060;-78
2022/08/16 10:40:09;;;;;;;2.90;1.50;;;27.50;89.30;;;;;;5052833;28;20535;-77
2022/08/16 10:42:35;;;;;;;2.40;1.40;;;28.00;87.60;;;;;;5052426;28;20060;-77
2022/08/16 10:45:01;;;;;;;2.20;1.38;;;27.80;85.70;;;;;;5051716;28;20053;-78
2022/08/16 10:47:28;;;;;;;2.70;1.60;;;28.10;86.20;;;;;;5051024;28;20410;-77
2022/08/16 10:49:54;;;;;;;2.72;1.67;;;28.00;86.40;;;;;;5051527;28;20055;-77
2022/08/16 10:52:21;;;;;;;3.83;1.73;;;28.00;86.70;;;;;;5051251;28;20021;-78
2022/08/16 10:54:47;;;;;;;3.97;1.80;;;28.30;86.00;;;;;;5051297;28;20052;-78
2022/08/16 10:57:13;;;;;;;2.30;1.10;;;28.40;86.50;;;;;;5051304;28;20363;-77
2022/08/16 10:59:40;;;;;;;2.35;1.40;;;28.60;86.10;;;;;;5051001;28;20506;-77
2022/08/16 11:02:07;;;;;;;2.45;1.33;;;28.20;84.00;;;;;;5051063;28;20048;-78
2022/08/16 11:04:33;;;;;;;2.47;1.60;;;28.20;86.10;;;;;;5051815;28;20029;-78
2022/08/16 11:06:59;;;;;;;2.45;1.35;;;28.10;81.40;;;;;;5051090;28;20063;-78
2022/08/16 11:09:24;;;;;;;2.85;1.60;;;28.40;83.70;;;;;;5051193;28;20048;-78
2022/08/16 11:11:50;;;;;;;1.83;0.98;;;28.80;82.70;;;;;;5051369;28;20111;-78
2022/08/16 11:14:17;;;;;;;2.63;1.38;;;29.00;84.70;;;;;;5050833;28;20036;-78
2022/08/16 11:16:43;;;;;;;3.45;1.13;;;29.00;83.00;;;;;;5050503;28;20435;-78
2022/08/16 11:19:10;;;;;;;3.47;1.67;;;28.90;85.10;;;;;;5050785;28;20112;-78
2022/08/16 11:21:35;;;;;;;2.63;1.35;;;28.70;84.60;;;;;;5051067;28;20033;-78
2022/08/16 11:24:03;;;;;;;4.35;1.60;;;28.80;86.30;;;;;;5050658;28;20031;-78
2022/08/16 11:26:29;;;;;;;2.50;1.65;;;28.80;85.60;;;;;;5050759;28;20037;-78
2022/08/16 11:28:56;;;;;;;2.25;1.30;;;29.20;86.80;;;;;;5051018;28;20429;-78
2022/08/16 11:31:23;;;;;;;2.60;1.45;;;29.00;84.50;;;;;;5050569;28;20032;-78
2022/08/16 11:33:49;;;;;;;3.10;1.50;;;29.20;83.70;;;;;;5050644;28;20078;-78
2022/08/16 11:36:14;;;;;;;2.55;1.33;;;28.90;85.00;;;;;;5050326;28;20092;-78
2022/08/16 11:38:40;;;;;;;3.63;1.58;;;29.30;85.10;;;;;;5050049;28;20467;-78
2022/08/16 11:41:06;;;;;;;2.67;1.42;;;29.60;84.40;;;;;;5050193;28;20040;-78
2022/08/16 11:43:34;;;;;;;3.20;1.50;;;29.80;84.00;;;;;;5049951;28;20036;-78
2022/08/16 11:46:04;;;;;;;2.53;1.52;;;29.70;82.90;;;;;;5049773;28;20044;-78
2022/08/16 11:48:32;;;;;;;5.90;2.10;;;29.70;83.40;;;;;;5050315;28;20051;-78
2022/08/16 11:50:59;;;;;;;3.45;1.33;;;29.50;83.10;;;;;;5049486;28;20379;-78
2022/08/16 11:53:27;;;;;;;2.42;1.40;;;29.60;82.10;;;;;;5051037;28;20604;-78
2022/08/16 11:55:53;;;;;;;3.72;2.13;;;29.70;82.10;;;;;;5050306;28;20017;-78
2022/08/16 11:58:20;;;;;;;7.93;1.70;;;29.60;83.80;;;;;;5050286;28;20646;-78
2022/08/16 12:00:46;;;;;;;4.07;1.60;;;30.00;84.20;;;;;;5050422;28;20378;-78
2022/08/16 12:03:12;;;;;;;4.03;2.08;;;30.30;82.70;;;;;;5050502;28;20025;-78
2022/08/16 12:05:39;;;;;;;3.65;1.67;;;30.20;81.70;;;;;;5050277;28;20041;-78
2022/08/16 12:08:06;;;;;;;5.53;1.83;;;30.40;83.40;;;;;;5050870;28;20032;-78
2022/08/16 12:10:34;;;;;;;4.78;1.55;;;30.30;82.70;;;;;;5049987;28;20091;-78
2022/08/16 12:13:00;;;;;;;4.72;2.03;;;30.40;80.10;;;;;;5049889;28;20025;-78
2022/08/16 12:15:26;;;;;;;8.18;2.25;;;30.70;80.70;;;;;;5050076;28;20041;-78
2022/08/16 12:17:53;;;;;;;7.13;2.35;;;30.70;80.90;;;;;;5050677;28;20559;-78
2022/08/16 12:20:24;;;;;;;15.68;3.10;;;30.60;80.00;;;;;;5051017;28;20029;-78
2022/08/16 12:22:51;;;;;;;9.27;2.40;;;30.80;80.50;;;;;;5050721;28;20029;-78
2022/08/16 12:25:18;;;;;;;8.52;2.33;;;30.70;79.00;;;;;;5049732;28;20631;-78
2022/08/16 12:27:45;;;;;;;9.77;2.50;;;30.80;80.80;;;;;;5050451;28;20056;-78
2022/08/16 12:30:13;;;;;;;7.25;2.03;;;30.90;80.20;;;;;;5050717;28;20597;-78
2022/08/16 12:32:39;;;;;;;9.07;2.80;;;30.90;80.80;;;;;;5050612;28;20036;-78
2022/08/16 12:35:06;;;;;;;7.88;2.75;;;31.00;81.50;;;;;;5050626;28;20025;-78
2022/08/16 12:37:33;;;;;;;5.72;2.13;;;31.00;81.10;;;;;;5050649;28;20055;-78
2022/08/16 12:39:58;;;;;;;6.35;2.75;;;30.90;80.80;;;;;;5050155;28;20043;-78
2022/08/16 12:42:25;;;;;;;4.57;2.38;;;31.00;80.90;;;;;;5050598;28;20029;-78
2022/08/16 12:44:51;;;;;;;12.73;3.25;;;31.00;81.90;;;;;;5048931;28;20379;-78
2022/08/16 12:50:03;;;;;;;9.13;2.95;;;31.10;81.50;;;;;;5050436;28;20426;-78